Time;durP1;ratioP1;P1;durP2;ratioP2;P2;SDS_P1;SDS_P2;PMS_P1;PMS_P2;Temp;Humidity;BMP_temperature;BMP_pressure;BME280_temperature;BME280_humidity;BME280_pressure;Samples;Min_cycle;Max_cycle;Signal;HPM_P1;HPM_P2
2023/03/10 00:01:23;;;;;;;;;;;;;;;-142.75;100.00;75964.03;4955880;29;20004;-66
2023/03/10 00:03:48;;;;;;;;;;;;;;;-142.75;100.00;75946.34;4955858;28;19919;-66
2023/03/10 00:06:15;;;;;;;;;;;;;;;-142.75;100.00;75924.69;4956127;29;19910;-67
2023/03/10 00:08:41;;;;;;;;;;;;;;;-142.75;100.00;75924.69;4956027;29;20032;-67
2023/03/10 00:11:06;;;;;;;;;;;;;;;-142.75;100.00;75942.41;4938526;29;19914;-67
2023/03/10 00:13:31;;;;;;;;;;;;;;;-142.75;100.00;75920.75;4955868;28;19932;-67
2023/03/10 00:15:56;;;;;;;;;;;;;;;-142.75;100.00;75920.75;4955873;29;20344;-67
2023/03/10 00:18:21;;;;;;;;;;;;;;;-142.75;100.00;75905.00;4938584;29;20368;-67
2023/03/10 00:20:49;;;;;;;;;;;;;;;-142.75;100.00;75908.94;4955689;29;20415;-67
2023/03/10 00:23:14;;;;;;;;;;;;;;;-142.75;100.00;75924.69;4955741;28;20280;-67
2023/03/10 00:25:39;;;;;;;;;;;;;;;-142.75;100.00;75928.63;4938465;29;19910;-67
2023/03/10 00:28:04;;;;;;;;;;;;;;;-142.75;100.00;75906.97;4955599;29;19910;-67
2023/03/10 00:30:33;;;;;;;;;;;;;;;-142.75;100.00;75922.72;4955459;29;19910;-67
2023/03/10 00:32:59;;;;;;;;;;;;;;;-142.75;100.00;75924.69;4955346;28;19910;-67
2023/03/10 00:35:24;;;;;;;;;;;;;;;-142.75;100.00;75930.59;4955542;29;19914;-67
2023/03/10 00:37:49;;;;;;;;;;;;;;;-142.75;100.00;75916.81;4954359;28;20423;-68
2023/03/10 00:40:15;;;;;;;;;;;;;;;-142.75;100.00;75928.63;4955360;29;19917;-67
2023/03/10 00:42:40;;;;;;;;;;;;;;;-142.75;100.00;75932.56;4955152;28;19933;-67
2023/03/10 00:45:06;;;;;;;;;;;;;;;-142.75;100.00;75924.69;4955222;29;19915;-67
2023/03/10 00:47:31;;;;;;;;;;;;;;;-142.75;100.00;75940.44;4955297;29;19910;-67
2023/03/10 00:49:57;;;;;;;;;;;;;;;-142.75;100.00;75944.38;4955131;29;20001;-67
2023/03/10 00:52:22;;;;;;;;;;;;;;;-142.75;100.00;75940.44;4937909;29;19910;-67
2023/03/10 00:54:47;;;;;;;;;;;;;;;-142.75;100.00;75948.31;4955088;28;19917;-67
2023/03/10 00:57:12;;;;;;;;;;;;;;;-142.75;100.00;75944.38;4937802;29;19918;-67
2023/03/10 00:59:37;;;;;;;;;;;;;;;-142.75;100.00;75932.56;4954975;29;19917;-67
2023/03/10 01:02:04;;;;;;;;;;;;;;;-142.75;100.00;75926.66;4954752;29;19910;-67
2023/03/10 01:04:29;;;;;;;;;;;;;;;-142.75;100.00;75912.88;4954976;28;20322;-67
2023/03/10 01:06:54;;;;;;;;;;;;;;;-142.75;100.00;75905.00;4955699;29;19916;-67
2023/03/10 01:09:19;;;;;;;;;;;;;;;-142.75;100.00;75903.03;4955334;29;19911;-66
2023/03/10 01:11:44;;;;;;;;;;;;;;;-142.75;100.00;75895.16;4954737;29;19910;-67
2023/03/10 01:14:12;;;;;;;;;;;;;;;-142.75;100.00;75883.34;4937362;29;19953;-67
2023/03/10 01:16:37;;;;;;;;;;;;;;;-142.75;100.00;75877.44;4954650;29;20368;-67
2023/03/10 01:19:02;;;;;;;;;;;;;;;-142.75;100.00;75877.44;4954680;29;19910;-67
2023/03/10 01:21:30;;;;;;;;;;;;;;;-142.75;100.00;75857.78;4937229;29;19924;-67
2023/03/10 01:23:55;;;;;;;;;;;;;;;-142.75;100.00;75867.59;4954479;28;19914;-66
2023/03/10 01:26:21;;;;;;;;;;;;;;;-142.75;100.00;75851.88;4954629;29;19918;-67
2023/03/10 01:28:46;;;;;;;;;;;;;;;-142.75;100.00;75845.97;4954505;29;19950;-67
2023/03/10 01:31:12;;;;;;;;;;;;;;;-142.75;100.00;75828.25;4954323;29;19933;-67
2023/03/10 01:33:41;;;;;;;;;;;;;;;-142.75;100.00;75826.28;4954412;28;20395;-67
2023/03/10 01:36:11;;;;;;;;;;;;;;;-142.75;100.00;75853.84;4954451;29;20439;-67
2023/03/10 01:38:36;;;;;;;;;;;;;;;-142.75;100.00;75842.03;4937146;29;19917;-67
2023/03/10 01:41:02;;;;;;;;;;;;;;;-142.75;100.00;75851.88;4954168;29;20284;-67
2023/03/10 01:43:33;;;;;;;;;;;;;;;-142.75;100.00;75849.91;4954029;28;20396;-67
2023/03/10 01:46:01;;;;;;;;;;;;;;;-142.75;100.00;75847.94;4954349;29;19960;-67
2023/03/10 01:48:28;;;;;;;;;;;;;;;-142.75;100.00;75851.88;4953863;28;19917;-67
2023/03/10 01:50:54;;;;;;;;;;;;;;;-142.75;100.00;75847.94;4954144;29;19910;-67
2023/03/10 01:53:20;;;;;;;;;;;;;;;-142.75;100.00;75840.06;4953932;28;19989;-67
2023/03/10 01:55:47;;;;;;;;;;;;;;;-142.75;100.00;75865.63;4954121;29;20444;-67
2023/03/10 01:58:14;;;;;;;;;;;;;;;-142.75;100.00;75873.50;4954031;29;20376;-67
2023/03/10 02:00:40;;;;;;;;;;;;;;;-142.75;100.00;75849.91;4954000;29;19997;-67
2023/03/10 02:03:22;;;;;;;;;;;;;;;-142.75;100.00;75830.22;4953673;28;19972;-67
2023/03/10 02:05:49;;;;;;;;;;;;;;;-142.75;100.00;75820.38;4954047;29;19911;-67
2023/03/10 02:08:15;;;;;;;;;;;;;;;-142.75;100.00;75826.28;4953962;29;19954;-67
2023/03/10 02:10:40;;;;;;;;;;;;;;;-142.75;100.00;75834.16;4953873;29;19933;-67
2023/03/10 02:13:06;;;;;;;;;;;;;;;-142.75;100.00;75834.16;4953714;28;20368;-67
2023/03/10 02:15:34;;;;;;;;;;;;;;;-142.75;100.00;75824.31;4953964;29;20300;-67
2023/03/10 02:18:00;;;;;;;;;;;;;;;-142.75;100.00;75818.41;4936640;29;19917;-67
2023/03/10 02:20:49;;;;;;;;;;;;;;;-142.75;100.00;75808.56;4953726;29;19910;-66
2023/03/10 02:23:18;;;;;;;;;;;;;;;-142.75;100.00;75814.47;4945439;28;19925;-67
2023/03/10 02:26:09;;;;;;;;;;;;;;;-142.75;100.00;75788.88;4953893;29;19910;-67
2023/03/10 02:28:34;;;;;;;;;;;;;;;-142.75;100.00;75790.84;4950601;29;19953;-67
2023/03/10 02:31:00;;;;;;;;;;;;;;;-142.75;100.00;75794.78;4953663;29;19945;-67
2023/03/10 02:33:27;;;;;;;;;;;;;;;-142.75;100.00;75786.91;4953584;28;19965;-67
2023/03/10 02:35:52;;;;;;;;;;;;;;;-142.75;100.00;75794.78;4953752;29;19911;-67
2023/03/10 02:38:17;;;;;;;;;;;;;;;-142.75;100.00;75782.97;4953737;29;20406;-67
2023/03/10 02:40:43;;;;;;;;;;;;;;;-142.75;100.00;75777.06;4953618;29;19910;-66
2023/03/10 02:43:23;;;;;;;;;;;;;;;-142.75;100.00;75794.78;4953425;28;19969;-67
2023/03/10 02:45:49;;;;;;;;;;;;;;;-142.75;100.00;75775.09;4953701;29;20335;-67
2023/03/10 02:48:19;;;;;;;;;;;;;;;-142.75;100.00;75800.69;4953616;29;19910;-67
2023/03/10 02:50:46;;;;;;;;;;;;;;;-142.75;100.00;75792.81;4953542;29;20311;-67
2023/03/10 02:53:14;;;;;;;;;;;;;;;-142.75;100.00;75790.84;4953414;28;20004;-67
2023/03/10 02:55:40;;;;;;;;;;;;;;;-142.75;100.00;75790.84;4953590;29;19918;-67
2023/03/10 02:58:05;;;;;;;;;;;;;;;-142.75;100.00;75769.19;4953399;29;19911;-67
2023/03/10 03:00:30;;;;;;;;;;;;;;;-142.75;100.00;75784.94;4953800;28;19911;-67
2023/03/10 03:02:56;;;;;;;;;;;;;;;-142.75;100.00;75773.13;4956854;28;19961;-67
2023/03/10 03:05:21;;;;;;;;;;;;;;;-142.75;100.00;75775.09;4957151;29;19910;-67
2023/03/10 03:07:46;;;;;;;;;;;;;;;-142.75;100.00;75761.34;4939900;29;19910;-67
2023/03/10 03:10:11;;;;;;;;;;;;;;;-142.75;100.00;75775.09;4956981;29;19911;-67
2023/03/10 03:12:37;;;;;;;;;;;;;;;-142.75;100.00;75777.06;4939453;28;19910;-67
2023/03/10 03:15:03;;;;;;;;;;;;;;;-142.75;100.00;75771.16;4956955;29;19911;-67
2023/03/10 03:17:29;;;;;;;;;;;;;;;-142.75;100.00;75779.03;4956977;29;20042;-67
2023/03/10 03:19:54;;;;;;;;;;;;;;;-142.75;100.00;75781.00;4956736;29;20285;-67
2023/03/10 03:22:19;;;;;;;;;;;;;;;-142.75;100.00;75784.94;4956746;29;19910;-67
2023/03/10 03:24:44;;;;;;;;;;;;;;;-142.75;100.00;75798.72;4956802;28;20400;-67
2023/03/10 03:27:09;;;;;;;;;;;;;;;-142.75;100.00;75782.97;4956751;29;19930;-67
2023/03/10 03:29:35;;;;;;;;;;;;;;;-142.75;100.00;75790.84;4956685;29;19962;-67
2023/03/10 03:32:00;;;;;;;;;;;;;;;-142.75;100.00;75810.53;4956491;29;19910;-67
2023/03/10 03:34:25;;;;;;;;;;;;;;;-142.75;100.00;75806.59;4956615;28;19910;-67
2023/03/10 03:36:51;;;;;;;;;;;;;;;-142.75;100.00;75806.59;4956613;29;19933;-67
2023/03/10 03:39:16;;;;;;;;;;;;;;;-142.75;100.00;75816.44;4956542;29;19914;-67
2023/03/10 03:41:42;;;;;;;;;;;;;;;-142.75;100.00;75810.53;4956229;29;19957;-67
2023/03/10 03:44:07;;;;;;;;;;;;;;;-142.75;100.00;75794.78;4956335;28;19953;-67
2023/03/10 03:46:32;;;;;;;;;;;;;;;-142.75;100.00;75796.75;4956482;29;19917;-67
2023/03/10 03:48:58;;;;;;;;;;;;;;;-142.75;100.00;75779.03;4956425;29;20387;-67
2023/03/10 03:51:23;;;;;;;;;;;;;;;-142.75;100.00;75804.63;4956090;29;20391;-67
2023/03/10 03:53:48;;;;;;;;;;;;;;;-142.75;100.00;75798.72;4956289;28;19911;-67
2023/03/10 03:56:13;;;;;;;;;;;;;;;-142.75;100.00;75796.75;4956247;29;19910;-67
2023/03/10 03:58:39;;;;;;;;;;;;;;;-142.75;100.00;75775.09;4956180;29;19918;-67
2023/03/10 04:01:04;;;;;;;;;;;;;;;-142.75;100.00;75786.91;4955936;29;19911;-67
2023/03/10 04:03:29;;;;;;;;;;;;;;;-142.75;100.00;75779.03;4955938;28;19918;-67
2023/03/10 04:05:54;;;;;;;;;;;;;;;-142.75;100.00;75771.16;4956167;29;20395;-67
2023/03/10 04:08:19;;;;;;;;;;;;;;;-142.75;100.00;75771.16;4956063;29;19911;-67
2023/03/10 04:10:52;;;;;;;;;;;;;;;-142.75;100.00;75759.38;4955917;29;19914;-67
2023/03/10 04:13:17;;;;;;;;;;;;;;;-142.75;100.00;75763.28;4955492;28;19917;-67
2023/03/10 04:15:42;;;;;;;;;;;;;;;-142.75;100.00;75773.13;4955879;29;20372;-67
2023/03/10 04:18:09;;;;;;;;;;;;;;;-142.75;100.00;75767.22;4955938;29;20423;-67
2023/03/10 04:20:34;;;;;;;;;;;;;;;-142.75;100.00;75757.41;4938440;29;19946;-67
2023/03/10 04:23:00;;;;;;;;;;;;;;;-142.75;100.00;75775.09;4955508;28;20387;-67
2023/03/10 04:25:26;;;;;;;;;;;;;;;-142.75;100.00;75798.72;4955686;29;19917;-67
2023/03/10 04:27:51;;;;;;;;;;;;;;;-142.75;100.00;75798.72;4955616;29;19911;-67
2023/03/10 04:30:16;;;;;;;;;;;;;;;-142.75;100.00;75810.53;4955567;29;20273;-67
2023/03/10 04:32:41;;;;;;;;;;;;;;;-142.75;100.00;75814.47;4955441;28;20355;-67
2023/03/10 04:35:07;;;;;;;;;;;;;;;-142.75;100.00;75806.59;4955618;29;20409;-67
2023/03/10 04:37:32;;;;;;;;;;;;;;;-142.75;100.00;75788.88;4955486;29;19910;-67
2023/03/10 04:39:57;;;;;;;;;;;;;;;-142.75;100.00;75818.41;4955329;29;19921;-67
2023/03/10 04:42:23;;;;;;;;;;;;;;;-142.75;100.00;75826.28;4955199;29;19914;-67
2023/03/10 04:44:48;;;;;;;;;;;;;;;-142.75;100.00;75830.22;4955224;28;20021;-67
2023/03/10 04:47:13;;;;;;;;;;;;;;;-142.75;100.00;75812.50;4955369;29;20296;-67
2023/03/10 04:49:39;;;;;;;;;;;;;;;-142.75;100.00;75814.47;4937877;29;19918;-67
2023/03/10 04:52:04;;;;;;;;;;;;;;;-142.75;100.00;75802.66;4955004;29;20395;-67
2023/03/10 04:54:29;;;;;;;;;;;;;;;-142.75;100.00;75826.28;4955054;28;19917;-67
2023/03/10 04:56:54;;;;;;;;;;;;;;;-142.75;100.00;75834.16;4937832;29;19911;-67
2023/03/10 04:59:20;;;;;;;;;;;;;;;-142.75;100.00;75824.31;4954906;29;19931;-67
2023/03/10 05:01:45;;;;;;;;;;;;;;;-142.75;100.00;75818.41;4954902;29;19933;-67
2023/03/10 05:04:11;;;;;;;;;;;;;;;-142.75;100.00;75822.34;4969179;23;19926;-65
2023/03/10 05:06:36;;;;;;;;;;;;;;;-142.75;100.00;75810.53;4934996;29;19919;-64
2023/03/10 05:09:03;;;;;;;;;;;;;;;-142.75;100.00;75802.66;4934149;29;19926;-65
2023/03/10 05:11:29;;;;;;;;;;;;;;;-142.75;100.00;75816.44;4935360;29;19926;-65
2023/03/10 05:13:54;;;;;;;;;;;;;;;-142.75;100.00;75808.56;4935622;29;19910;-64
2023/03/10 05:16:20;;;;;;;;;;;;;;;-142.75;100.00;75804.63;4918485;29;20299;-62
2023/03/10 05:18:46;;;;;;;;;;;;;;;-142.75;100.00;75796.75;4935589;29;19911;-64
2023/03/10 05:21:11;;;;;;;;;;;;;;;-142.75;100.00;75796.75;4918117;29;20013;-64
2023/03/10 05:23:36;;;;;;;;;;;;;;;-142.75;100.00;75802.66;4934953;29;19985;-64
2023/03/10 05:26:04;;;;;;;;;;;;;;;-142.75;100.00;75798.72;4934155;29;19910;-63
2023/03/10 05:28:29;;;;;;;;;;;;;;;-142.75;100.00;75810.53;4935395;29;19911;-64
2023/03/10 05:30:54;;;;;;;;;;;;;;;-142.75;100.00;75820.38;4935218;29;20341;-65
2023/03/10 05:33:20;;;;;;;;;;;;;;;-142.75;100.00;75822.34;4933833;29;19918;-65
2023/03/10 05:35:45;;;;;;;;;;;;;;;-142.75;100.00;75818.41;4935284;29;20005;-64
2023/03/10 05:38:10;;;;;;;;;;;;;;;-142.75;100.00;75804.63;4935112;29;19930;-64
2023/03/10 05:40:36;;;;;;;;;;;;;;;-142.75;100.00;75790.84;4935023;29;19919;-64
2023/03/10 05:43:01;;;;;;;;;;;;;;;-142.75;100.00;75798.72;4934903;29;19914;-64
2023/03/10 05:45:26;;;;;;;;;;;;;;;-142.75;100.00;75798.72;4935164;29;19911;-64
2023/03/10 05:47:52;;;;;;;;;;;;;;;-142.75;100.00;75798.72;4933848;29;20329;-65
2023/03/10 05:50:17;;;;;;;;;;;;;;;-142.75;100.00;75779.03;4934697;29;19945;-64
2023/03/10 05:52:42;;;;;;;;;;;;;;;-142.75;100.00;75820.38;4935146;29;20011;-65
2023/03/10 05:55:11;;;;;;;;;;;;;;;-142.75;100.00;75800.69;4934045;29;19966;-62
2023/03/10 05:57:37;;;;;;;;;;;;;;;-142.75;100.00;75812.50;4935318;29;19953;-65
2023/03/10 06:00:03;;;;;;;;;;;;;;;-142.75;100.00;75806.59;4925193;29;19946;-64
2023/03/10 06:02:28;;;;;;;;;;;;;;;-142.75;100.00;75802.66;4917034;29;19922;-64
2023/03/10 06:04:53;;;;;;;;;;;;;;;-142.75;100.00;75800.69;4933347;29;19918;-64
2023/03/10 06:07:18;;;;;;;;;;;;;;;-142.75;100.00;75790.84;4934716;29;19911;-64
2023/03/10 06:09:43;;;;;;;;;;;;;;;-142.75;100.00;75796.75;4934645;29;19986;-63
2023/03/10 06:12:09;;;;;;;;;;;;;;;-142.75;100.00;75806.59;4933691;29;19911;-64
2023/03/10 06:14:36;;;;;;;;;;;;;;;-142.75;100.00;75822.34;4934731;29;19914;-64
2023/03/10 06:17:01;;;;;;;;;;;;;;;-142.75;100.00;75806.59;4934802;29;19922;-64
2023/03/10 06:19:26;;;;;;;;;;;;;;;-142.75;100.00;75816.44;4934693;29;19910;-64
2023/03/10 06:21:52;;;;;;;;;;;;;;;-142.75;100.00;75814.47;4917456;29;20300;-64
2023/03/10 06:24:17;;;;;;;;;;;;;;;-142.75;100.00;75802.66;4934597;29;19915;-65
2023/03/10 06:26:42;;;;;;;;;;;;;;;-142.75;100.00;75814.47;4934619;29;19927;-65
2023/03/10 06:29:07;;;;;;;;;;;;;;;-142.75;100.00;75804.63;4933473;29;19914;-64
2023/03/10 06:31:33;;;;;;;;;;;;;;;-142.75;100.00;75810.53;4934402;29;19915;-64
2023/03/10 06:33:58;;;;;;;;;;;;;;;-142.75;100.00;75796.75;4934616;29;19949;-64
2023/03/10 06:36:25;;;;;;;;;;;;;;;-142.75;100.00;75798.72;4938040;29;19961;-64
2023/03/10 06:38:51;;;;;;;;;;;;;;;-142.75;100.00;75788.88;4921227;29;19950;-64
2023/03/10 06:41:16;;;;;;;;;;;;;;;-142.75;100.00;75790.84;4938184;29;20021;-64
2023/03/10 06:43:42;;;;;;;;;;;;;;;-142.75;100.00;75788.88;4921150;29;19921;-64
2023/03/10 06:46:08;;;;;;;;;;;;;;;-142.75;100.00;75786.91;4938504;29;19911;-64
2023/03/10 06:48:34;;;;;;;;;;;;;;;-142.75;100.00;75814.47;4938309;29;19911;-62
2023/03/10 06:50:59;;;;;;;;;;;;;;;-142.75;100.00;75794.78;4938113;29;19918;-64
2023/03/10 06:53:26;;;;;;;;;;;;;;;-142.75;100.00;75790.84;4938061;29;19910;-64
2023/03/10 06:55:58;;;;;;;;;;;;;;;-142.75;100.00;75792.81;4938258;29;19915;-63
2023/03/10 06:58:23;;;;;;;;;;;;;;;-142.75;100.00;75814.47;4938082;29;19933;-65
2023/03/10 07:00:48;;;;;;;;;;;;;;;-142.75;100.00;75804.63;4938121;29;20345;-65
2023/03/10 07:03:14;;;;;;;;;;;;;;;-142.75;100.00;75800.69;4920662;29;19981;-65
2023/03/10 07:05:39;;;;;;;;;;;;;;;-142.75;100.00;75814.47;4938043;29;20332;-65
2023/03/10 07:08:04;;;;;;;;;;;;;;;-142.75;100.00;75812.50;4937885;29;19911;-66
2023/03/10 07:10:30;;;;;;;;;;;;;;;-142.75;100.00;75798.72;4937802;29;20539;-65
2023/03/10 07:12:57;;;;;;;;;;;;;;;-142.75;100.00;75808.56;4936505;29;19911;-65
2023/03/10 07:15:23;;;;;;;;;;;;;;;-142.75;100.00;75816.44;4937802;29;19910;-64
2023/03/10 07:17:48;;;;;;;;;;;;;;;-142.75;100.00;75818.41;4936570;29;19918;-64
2023/03/10 07:20:13;;;;;;;;;;;;;;;-142.75;100.00;75812.50;4937693;29;20329;-65
2023/03/10 07:22:39;;;;;;;;;;;;;;;-142.75;100.00;75800.69;4937575;29;19911;-65
2023/03/10 07:25:04;;;;;;;;;;;;;;;-142.75;100.00;75794.78;4937336;29;19927;-64
2023/03/10 07:27:30;;;;;;;;;;;;;;;-142.75;100.00;75773.13;4937749;29;20269;-65
2023/03/10 07:29:55;;;;;;;;;;;;;;;-142.75;100.00;75759.38;4937613;29;19910;-64
2023/03/10 07:32:20;;;;;;;;;;;;;;;-142.75;100.00;75775.09;4937480;29;19969;-64
2023/03/10 07:34:46;;;;;;;;;;;;;;;-142.75;100.00;75781.00;4936141;29;20412;-64
2023/03/10 07:37:11;;;;;;;;;;;;;;;-142.75;100.00;75763.28;4937448;29;20300;-65
2023/03/10 07:39:36;;;;;;;;;;;;;;;-142.75;100.00;75771.16;4937299;29;20009;-65
2023/03/10 07:42:01;;;;;;;;;;;;;;;-142.75;100.00;75749.53;4937309;29;19918;-65
2023/03/10 07:44:27;;;;;;;;;;;;;;;-142.75;100.00;75739.69;4937273;29;19943;-65
2023/03/10 07:46:52;;;;;;;;;;;;;;;-142.75;100.00;75771.16;4936603;29;20016;-65
2023/03/10 07:49:17;;;;;;;;;;;;;;;-142.75;100.00;75755.44;4937214;29;19917;-64
2023/03/10 07:51:42;;;;;;;;;;;;;;;-142.75;100.00;75747.56;4936942;29;19911;-65
2023/03/10 07:54:08;;;;;;;;;;;;;;;-142.75;100.00;75759.38;4937060;29;19911;-64
2023/03/10 07:56:33;;;;;;;;;;;;;;;-142.75;100.00;75771.16;4937149;29;20369;-64
2023/03/10 07:58:59;;;;;;;;;;;;;;;-142.75;100.00;75759.38;4937057;29;19993;-65
2023/03/10 08:01:25;;;;;;;;;;;;;;;-142.75;100.00;75751.50;4936827;29;19917;-64
2023/03/10 08:03:50;;;;;;;;;;;;;;;-142.75;100.00;75767.22;4919586;29;19918;-64
2023/03/10 08:06:21;;;;;;;;;;;;;;;-142.75;100.00;75763.28;4936937;29;19915;-65
2023/03/10 08:08:46;;;;;;;;;;;;;;;-142.75;100.00;75751.50;4936819;29;19917;-64
2023/03/10 08:11:11;;;;;;;;;;;;;;;-142.75;100.00;75759.38;4935352;29;19914;-62
2023/03/10 08:13:36;;;;;;;;;;;;;;;-142.75;100.00;75759.38;4936797;29;19910;-63
2023/03/10 08:16:02;;;;;;;;;;;;;;;-142.75;100.00;75767.22;4936778;29;19911;-65
2023/03/10 08:18:28;;;;;;;;;;;;;;;-142.75;100.00;75755.44;4936753;29;19925;-64
2023/03/10 08:20:54;;;;;;;;;;;;;;;-142.75;100.00;75751.50;4936528;29;19914;-64
2023/03/10 08:23:19;;;;;;;;;;;;;;;-142.75;100.00;75771.16;4936311;29;19910;-64
2023/03/10 08:25:45;;;;;;;;;;;;;;;-142.75;100.00;75759.38;4936615;29;20396;-65
2023/03/10 08:28:10;;;;;;;;;;;;;;;-142.75;100.00;75763.28;4919419;29;19965;-64
2023/03/10 08:30:37;;;;;;;;;;;;;;;-142.75;100.00;75773.13;4936421;29;19910;-64
2023/03/10 08:33:02;;;;;;;;;;;;;;;-142.75;100.00;75769.19;4936241;29;19941;-64
2023/03/10 08:35:27;;;;;;;;;;;;;;;-142.75;100.00;75755.44;4936370;29;19911;-62
2023/03/10 08:37:52;;;;;;;;;;;;;;;-142.75;100.00;75767.22;4936261;29;20374;-63
2023/03/10 08:40:18;;;;;;;;;;;;;;;-142.75;100.00;75775.09;4936223;29;20436;-63
2023/03/10 08:42:43;;;;;;;;;;;;;;;-142.75;100.00;75755.44;4936122;29;19911;-63
2023/03/10 08:45:10;;;;;;;;;;;;;;;-142.75;100.00;75773.13;4936134;29;20025;-63
2023/03/10 08:47:35;;;;;;;;;;;;;;;-142.75;100.00;75771.16;4919114;29;19922;-63
2023/03/10 08:50:01;;;;;;;;;;;;;;;-142.75;100.00;75802.66;4936061;29;19914;-64
2023/03/10 08:52:26;;;;;;;;;;;;;;;-142.75;100.00;75782.97;4935915;29;19917;-64
2023/03/10 08:54:51;;;;;;;;;;;;;;;-142.75;100.00;75779.03;4931752;29;19918;-64
2023/03/10 08:57:16;;;;;;;;;;;;;;;-142.75;100.00;75779.03;4935213;29;19970;-65
2023/03/10 08:59:42;;;;;;;;;;;;;;;-142.75;100.00;75765.25;4951349;29;19993;-63
2023/03/10 09:02:09;;;;;;;;;;;;;;;-142.75;100.00;75769.19;4950061;29;19914;-64
2023/03/10 09:04:34;;;;;;;;;;;;;;;-142.75;100.00;75781.00;4950772;29;20388;-63
2023/03/10 09:07:00;;;;;;;;;;;;;;;-142.75;100.00;75786.91;4946140;29;19917;-64
2023/03/10 09:09:25;;;;;;;;;;;;;;;-142.75;100.00;75779.03;4949588;29;19965;-63
2023/03/10 09:11:50;;;;;;;;;;;;;;;-142.75;100.00;75784.94;4943771;29;19954;-63
2023/03/10 09:14:16;;;;;;;;;;;;;;;-142.75;100.00;75798.72;4943205;28;19914;-64
2023/03/10 09:16:41;;;;;;;;;;;;;;;-142.75;100.00;75788.88;4947443;29;20406;-64
2023/03/10 09:19:07;;;;;;;;;;;;;;;-142.75;100.00;75784.94;4945947;29;19911;-64
2023/03/10 09:21:32;;;;;;;;;;;;;;;-142.75;100.00;75775.09;4946224;29;19911;-63
2023/03/10 09:23:58;;;;;;;;;;;;;;;-142.75;100.00;75779.03;4950826;28;20001;-64
2023/03/10 09:26:23;;;;;;;;;;;;;;;-142.75;100.00;75794.78;4945088;29;19956;-62
2023/03/10 09:28:49;;;;;;;;;;;;;;;-142.75;100.00;75781.00;4943567;29;19914;-64
2023/03/10 09:31:27;;;;;;;;;;;;;;;-142.75;100.00;75794.78;5076630;27;19920;-65
2023/03/10 09:33:52;;;;;;;;;;;;;;;-142.75;100.00;75810.53;5061951;28;19923;-65
2023/03/10 09:36:17;;;;;;;;;;;;;;;-142.75;100.00;75792.81;5067405;28;20000;-64
2023/03/10 09:38:43;;;;;;;;;;;;;;;-142.75;100.00;75794.78;5067627;28;19924;-65
2023/03/10 09:41:14;;;;;;;;;;;;;;;-142.75;100.00;75773.13;5066993;28;20357;-65
2023/03/10 09:43:44;;;;;;;;;;;;;;;-142.75;100.00;75794.78;5069089;28;20344;-64
2023/03/10 09:46:16;;;;;;;;;;;;;;;-142.75;100.00;75800.69;5068732;28;20000;-64
2023/03/10 09:49:00;;;;;;;;;;;;;;;-142.75;100.00;75794.78;5068047;28;19924;-62
2023/03/10 09:51:27;;;;;;;;;;;;;;;-142.75;100.00;75769.19;5066313;28;20293;-64
2023/03/10 09:54:10;;;;;;;;;;;;;;;-142.75;100.00;75767.22;5068958;28;19921;-64
2023/03/10 09:56:36;;;;;;;;;;;;;;;-142.75;100.00;75794.78;5068486;28;19978;-65
2023/03/10 09:59:13;;;;;;;;;;;;;;;-142.75;100.00;75810.53;5068454;28;19913;-64
2023/03/10 10:01:40;;;;;;;;;;;;;;;-142.75;100.00;75814.47;5067030;28;19923;-65
2023/03/10 10:04:09;;;;;;;;;;;;;;;-142.75;100.00;75816.44;5068239;28;19916;-62
2023/03/10 10:06:38;;;;;;;;;;;;;;;-142.75;100.00;75818.41;5068193;28;19916;-65
2023/03/10 10:09:08;;;;;;;;;;;;;;;-142.75;100.00;75830.22;5068227;28;19923;-65
2023/03/10 10:11:35;;;;;;;;;;;;;;;-142.75;100.00;75814.47;5068058;28;20364;-64
2023/03/10 10:14:14;;;;;;;;;;;;;;;-142.75;100.00;75820.38;5068451;28;19913;-64
2023/03/10 10:16:46;;;;;;;;;;;;;;;-142.75;100.00;75836.13;5068487;28;19999;-64
2023/03/10 10:19:23;;;;;;;;;;;;;;;-142.75;100.00;75847.94;5068451;28;20004;-64
2023/03/10 10:21:52;;;;;;;;;;;;;;;-142.75;100.00;75855.81;5066931;28;19913;-64
2023/03/10 10:24:18;;;;;;;;;;;;;;;-142.75;100.00;75845.97;5068268;28;19913;-65
2023/03/10 10:26:44;;;;;;;;;;;;;;;-142.75;100.00;75877.44;5068318;28;19959;-64
2023/03/10 10:29:12;;;;;;;;;;;;;;;-142.75;100.00;75875.47;5068020;28;19912;-66
2023/03/10 10:31:37;;;;;;;;;;;;;;;-142.75;100.00;75893.19;5066634;28;19974;-64
2023/03/10 10:34:16;;;;;;;;;;;;;;;-142.75;100.00;75877.44;5068080;28;19916;-64
2023/03/10 10:36:53;;;;;;;;;;;;;;;-142.75;100.00;75853.84;5066822;28;20402;-65
2023/03/10 10:39:26;;;;;;;;;;;;;;;-142.75;100.00;75869.56;5068037;28;19955;-64
2023/03/10 10:41:51;;;;;;;;;;;;;;;-142.75;100.00;75885.31;5059103;28;19916;-65
2023/03/10 10:44:17;;;;;;;;;;;;;;;-142.75;100.00;75889.25;5053029;28;20015;-64
2023/03/10 10:47:08;;;;;;;;;;;;;;;-142.75;100.00;75885.31;5053712;28;19924;-64
2023/03/10 10:49:35;;;;;;;;;;;;;;;-142.75;100.00;75879.41;5038934;28;19921;-65
2023/03/10 10:52:02;;;;;;;;;;;;;;;-142.75;100.00;75875.47;5053430;28;19995;-66
2023/03/10 10:54:38;;;;;;;;;;;;;;;-142.75;100.00;75885.31;5053652;28;19913;-65
2023/03/10 10:57:14;;;;;;;;;;;;;;;-142.75;100.00;75897.13;5051908;28;20399;-66
2023/03/10 10:59:39;;;;;;;;;;;;;;;-142.75;100.00;75893.19;5051296;28;19924;-65
2023/03/10 11:02:30;;;;;;;;;;;;;;;-142.75;100.00;75877.44;5052445;28;19913;-65
2023/03/10 11:05:05;;;;;;;;;;;;;;;-142.75;100.00;75885.31;5054044;28;19973;-63
2023/03/10 11:07:31;;;;;;;;;;;;;;;-142.75;100.00;75881.38;5053630;28;20269;-65
2023/03/10 11:09:56;;;;;;;;;;;;;;;-142.75;100.00;75873.50;5054085;28;19917;-65
2023/03/10 11:12:29;;;;;;;;;;;;;;;-142.75;100.00;75881.38;5054117;28;19912;-66
2023/03/10 11:15:03;;;;;;;;;;;;;;;-142.75;100.00;75863.66;5054324;28;19915;-65
2023/03/10 11:17:47;;;;;;;;;;;;;;;-142.75;100.00;75867.59;5054152;28;20022;-65
2023/03/10 11:20:12;;;;;;;;;;;;;;;-142.75;100.00;75875.47;5053902;28;19960;-65
2023/03/10 11:22:43;;;;;;;;;;;;;;;-142.75;100.00;75859.72;5052667;28;19955;-66
2023/03/10 11:25:22;;;;;;;;;;;;;;;-142.75;100.00;75867.59;5053951;28;20035;-65
2023/03/10 11:27:53;;;;;;;;;;;;;;;-142.75;100.00;75881.38;5053964;28;19920;-65
2023/03/10 11:30:24;;;;;;;;;;;;;;;-142.75;100.00;75889.25;5053565;28;20012;-65
2023/03/10 11:33:08;;;;;;;;;;;;;;;-142.75;100.00;75849.91;5053747;28;19919;-65
2023/03/10 11:35:44;;;;;;;;;;;;;;;-142.75;100.00;75859.72;5052532;28;19917;-65
2023/03/10 11:38:28;;;;;;;;;;;;;;;-142.75;100.00;75869.56;5053297;28;20042;-65
2023/03/10 11:40:55;;;;;;;;;;;;;;;-142.75;100.00;75849.91;5053146;28;20383;-66
2023/03/10 11:43:23;;;;;;;;;;;;;;;-142.75;100.00;75842.03;5053004;28;19923;-65
2023/03/10 11:45:53;;;;;;;;;;;;;;;-142.75;100.00;75857.78;5052053;28;19919;-65
2023/03/10 11:48:37;;;;;;;;;;;;;;;-142.75;100.00;75863.66;5051020;28;19912;-66
2023/03/10 11:51:03;;;;;;;;;;;;;;;-142.75;100.00;75845.97;5049945;28;20289;-66
2023/03/10 11:53:49;;;;;;;;;;;;;;;-142.75;100.00;75885.31;5051807;28;19916;-65
2023/03/10 11:56:15;;;;;;;;;;;;;;;-142.75;100.00;75867.59;5052968;28;19921;-66
2023/03/10 11:58:47;;;;;;;;;;;;;;;-142.75;100.00;75861.69;5053349;28;19931;-64
2023/03/10 12:01:20;;;;;;;;;;;;;;;-142.75;100.00;75871.53;5053012;28;20533;-65
2023/03/10 12:03:58;;;;;;;;;;;;;;;-142.75;100.00;75849.91;5053242;28;19916;-64
2023/03/10 12:06:36;;;;;;;;;;;;;;;-142.75;100.00;75861.69;5052808;28;19920;-62
2023/03/10 12:09:04;;;;;;;;;;;;;;;-142.75;100.00;75857.78;5050730;28;19948;-64
2023/03/10 12:11:30;;;;;;;;;;;;;;;-142.75;100.00;75867.59;5052828;28;19913;-65
2023/03/10 12:13:57;;;;;;;;;;;;;;;-142.75;100.00;75873.50;5051546;28;19966;-64
2023/03/10 12:16:24;;;;;;;;;;;;;;;-142.75;100.00;75869.56;5052511;28;20019;-66
2023/03/10 12:18:50;;;;;;;;;;;;;;;-142.75;100.00;75865.63;5052062;28;19917;-65